Time;durP1;ratioP1;P1;durP2;ratioP2;P2;SDS_P1;SDS_P2;PMS_P1;PMS_P2;Temp;Humidity;BMP_temperature;BMP_pressure;BME280_temperature;BME280_humidity;BME280_pressure;Samples;Min_cycle;Max_cycle;Signal;HPM_P1;HPM_P2
2022/08/24 00:00:57;;;;;;;4.80;4.32;;;;;;;21.62;94.30;101847.75;5064160;28;20665;-67
2022/08/24 00:03:23;;;;;;;7.90;4.55;;;;;;;21.59;94.35;101851.50;5066060;28;20029;-66
2022/08/24 00:05:49;;;;;;;7.88;4.28;;;;;;;21.55;94.58;101848.16;5064448;28;20040;-66
2022/08/24 00:08:15;;;;;;;6.40;4.18;;;;;;;21.56;94.26;101851.72;5064771;28;20032;-65
2022/08/24 00:10:40;;;;;;;7.15;4.95;;;;;;;21.53;94.57;101857.28;5064559;28;20114;-65
2022/08/24 00:13:06;;;;;;;6.95;4.70;;;;;;;21.49;94.93;101856.59;5064452;28;20111;-66
2022/08/24 00:15:32;;;;;;;8.77;5.47;;;;;;;21.44;95.83;101848.88;5064231;28;20025;-67
2022/08/24 00:17:57;;;;;;;8.88;4.95;;;;;;;21.44;95.33;101848.88;5049216;28;20074;-65
2022/08/24 00:20:22;;;;;;;9.68;5.70;;;;;;;21.45;95.32;101845.22;5044684;28;20079;-66
2022/08/24 00:22:48;;;;;;;7.43;5.40;;;;;;;21.45;95.57;101847.03;5056536;28;20028;-66
2022/08/24 00:25:13;;;;;;;8.10;5.43;;;;;;;21.44;95.71;101843.50;5064934;28;20036;-64
2022/08/24 00:27:39;;;;;;;8.48;6.15;;;;;;;21.45;95.73;101845.22;5063738;28;20028;-64
2022/08/24 00:30:07;;;;;;;8.02;5.40;;;;;;;21.41;95.76;101843.72;5046669;28;20025;-65
2022/08/24 00:32:33;;;;;;;11.68;6.60;;;;;;;21.39;96.06;101845.63;5063617;28;20028;-65
2022/08/24 00:34:58;;;;;;;8.32;6.85;;;;;;;21.38;96.08;101848.38;5064525;28;20031;-65
2022/08/24 00:37:24;;;;;;;10.95;8.07;;;;;;;21.38;96.92;101853.75;5061984;28;20107;-64
2022/08/24 00:39:49;;;;;;;11.82;9.57;;;;;;;21.35;96.64;101857.50;5065082;28;20016;-66
2022/08/24 00:42:15;;;;;;;16.30;9.77;;;;;;;21.30;97.28;101854.25;5062979;28;20070;-65
2022/08/24 00:44:40;;;;;;;15.30;10.68;;;;;;;21.29;97.56;101852.53;5065004;28;20039;-65
2022/08/24 00:47:16;;;;;;;13.80;9.60;;;;;;;21.29;96.99;101856.06;5064142;28;20016;-66
2022/08/24 00:49:48;;;;;;;14.98;11.27;;;;;;;21.29;97.48;101847.16;5064054;28;20028;-65
2022/08/24 00:52:18;;;;;;;15.55;12.77;;;;;;;21.27;97.43;101847.25;5063380;28;20095;-65
2022/08/24 00:54:46;;;;;;;20.48;14.57;;;;;;;21.18;97.93;101843.34;5046284;28;20189;-65
2022/08/24 00:57:14;;;;;;;18.75;13.20;;;;;;;21.25;97.80;101843.81;5063730;28;20475;-65
2022/08/24 00:59:45;;;;;;;20.58;13.73;;;;;;;21.23;98.21;101844.88;5027809;28;20554;-64
2022/08/24 01:02:18;;;;;;;19.08;13.93;;;;;;;21.20;98.80;101841.41;5045379;28;20054;-65
2022/08/24 01:04:54;;;;;;;18.23;13.73;;;;;;;21.19;98.52;101850.41;5063468;28;20063;-64
2022/08/24 01:07:30;;;;;;;21.73;14.95;;;;;;;21.22;98.38;101841.31;5063440;28;20045;-65
2022/08/24 01:09:58;;;;;;;21.55;16.00;;;;;;;21.23;98.85;101844.88;5063895;28;20032;-64
2022/08/24 01:12:24;;;;;;;23.70;16.63;;;;;;;21.22;99.19;101841.31;5046246;28;20013;-64
2022/08/24 01:14:49;;;;;;;23.10;15.88;;;;;;;21.22;98.98;101835.97;5046038;28;20036;-64
2022/08/24 01:20:03;;;;;;;26.80;18.20;;;;;;;21.21;99.02;101832.44;5049028;28;20047;-65
2022/08/24 01:22:51;;;;;;;29.85;19.20;;;;;;;21.20;99.20;101833.38;5044520;28;20166;-64
2022/08/24 01:25:17;;;;;;;27.90;19.83;;;;;;;21.17;98.72;101836.28;5063871;28;20106;-64
2022/08/24 01:27:43;;;;;;;31.33;21.42;;;;;;;21.15;98.99;101835.50;5063071;28;20128;-63
2022/08/24 01:30:12;;;;;;;26.80;18.15;;;;;;;21.15;99.04;101831.94;5046076;28;20086;-66
2022/08/24 01:32:38;;;;;;;32.10;21.25;;;;;;;21.10;98.98;101829.56;5062854;28;20028;-66
2022/08/24 01:35:04;;;;;;;28.23;21.02;;;;;;;21.08;99.45;101831.50;5063947;28;20021;-65
2022/08/24 01:37:31;;;;;;;31.67;21.40;;;;;;;21.07;99.15;101841.34;5061932;28;20040;-65
2022/08/24 01:39:57;;;;;;;29.67;20.55;;;;;;;21.07;99.21;101837.81;5063066;28;20020;-63
2022/08/24 01:42:22;;;;;;;30.75;21.73;;;;;;;21.06;99.20;101846.78;5045666;28;20025;-64
2022/08/24 01:44:48;;;;;;;31.10;21.02;;;;;;;21.06;99.14;101849.47;5064034;28;20491;-65
2022/08/24 01:47:15;;;;;;;29.40;20.70;;;;;;;21.05;99.09;101850.44;5066826;28;20047;-64
2022/08/24 01:49:44;;;;;;;30.30;21.42;;;;;;;21.02;99.59;101851.50;5068174;28;20052;-65
2022/08/24 01:52:14;;;;;;;29.70;21.73;;;;;;;21.03;99.21;101855.03;5065951;28;20027;-66
2022/08/24 01:54:40;;;;;;;30.75;21.73;;;;;;;21.03;98.71;101853.22;5067634;28;20055;-66
2022/08/24 01:57:06;;;;;;;30.30;22.25;;;;;;;21.02;98.97;101853.31;5048285;28;20017;-65
2022/08/24 01:59:31;;;;;;;35.03;23.08;;;;;;;21.01;99.15;101854.28;5067933;28;20039;-64
2022/08/24 02:02:07;;;;;;;28.88;21.42;;;;;;;21.00;99.40;101857.88;5066671;28;20064;-64
2022/08/24 02:04:34;;;;;;;33.15;24.10;;;;;;;21.01;99.35;101865.00;5048987;28;20048;-67
2022/08/24 02:07:00;;;;;;;35.55;23.92;;;;;;;21.02;99.54;101856.84;5066388;28;20420;-69
2022/08/24 02:09:25;;;;;;;31.23;21.98;;;;;;;21.06;98.97;101858.38;5066951;28;20451;-64
2022/08/24 02:11:51;;;;;;;32.28;22.60;;;;;;;21.06;98.68;101852.16;5067821;28;20383;-66
2022/08/24 02:14:18;;;;;;;32.72;24.73;;;;;;;21.05;99.46;101855.78;5066686;28;20032;-65
2022/08/24 02:16:43;;;;;;;31.30;23.48;;;;;;;21.06;99.42;101854.84;5066676;28;20551;-64
2022/08/24 02:19:08;;;;;;;34.97;24.77;;;;;;;21.08;99.10;101845.72;5066489;28;20115;-64
2022/08/24 02:21:34;;;;;;;37.05;25.20;;;;;;;21.08;98.96;101847.56;5065939;28;20467;-65
2022/08/24 02:23:59;;;;;;;39.92;24.45;;;;;;;21.08;99.18;101842.22;5064546;28;20115;-65
2022/08/24 02:26:25;;;;;;;33.22;24.10;;;;;;;21.12;98.90;101840.19;5066907;28;20028;-65
2022/08/24 02:28:50;;;;;;;35.72;24.35;;;;;;;21.07;98.87;101845.84;5065849;28;20579;-64
2022/08/24 02:31:15;;;;;;;37.65;24.55;;;;;;;21.03;98.83;101847.84;5067556;28;20502;-65
2022/08/24 02:33:41;;;;;;;30.10;22.23;;;;;;;21.02;98.70;101848.81;5066078;28;20527;-64
2022/08/24 02:36:08;;;;;;;32.58;23.35;;;;;;;21.00;99.01;101844.50;5065929;28;20036;-64
2022/08/24 02:38:33;;;;;;;33.28;23.05;;;;;;;20.99;99.24;101848.13;5066950;28;20059;-66
2022/08/24 02:40:59;;;;;;;31.80;22.80;;;;;;;20.96;99.01;101851.88;5064420;28;20072;-65
2022/08/24 02:43:25;;;;;;;37.00;22.90;;;;;;;20.99;98.71;101858.84;5066744;28;20024;-63
2022/08/24 02:45:51;;;;;;;34.92;23.88;;;;;;;20.94;98.91;101868.03;5065321;28;20017;-64
2022/08/24 02:48:17;;;;;;;30.95;22.00;;;;;;;20.91;98.94;101860.19;5067039;28;20025;-65
2022/08/24 02:50:45;;;;;;;28.23;20.45;;;;;;;20.91;98.78;101862.88;5065588;28;20056;-64
2022/08/24 02:53:12;;;;;;;34.47;23.37;;;;;;;20.90;99.12;101857.63;5065302;28;20040;-65
2022/08/24 02:55:40;;;;;;;36.15;24.73;;;;;;;20.88;99.35;101862.16;5065267;28;20032;-65
2022/08/24 02:58:05;;;;;;;35.00;25.08;;;;;;;20.87;99.32;101855.97;5065858;28;20048;-64
2022/08/24 03:00:31;;;;;;;32.92;23.52;;;;;;;20.88;99.39;101856.81;5065122;28;20056;-63
2022/08/24 03:02:56;;;;;;;34.88;24.30;;;;;;;20.87;99.64;101860.44;5067135;28;20663;-63
2022/08/24 03:05:22;;;;;;;33.75;23.60;;;;;;;20.85;99.46;101860.53;5065055;28;20694;-64
2022/08/24 03:07:48;;;;;;;36.05;24.35;;;;;;;20.85;99.86;101855.19;5066140;28;20052;-63
2022/08/24 03:10:13;;;;;;;33.40;23.50;;;;;;;20.84;99.77;101853.47;5066371;28;20070;-64
2022/08/24 03:12:39;;;;;;;40.58;25.15;;;;;;;20.84;100.00;101856.16;5065113;28;20021;-64
2022/08/24 03:15:06;;;;;;;33.20;23.88;;;;;;;20.82;99.67;101853.56;5065621;28;20039;-65
2022/08/24 03:17:32;;;;;;;35.38;23.67;;;;;;;20.81;99.51;101857.22;5065400;28;20382;-65
2022/08/24 03:19:59;;;;;;;35.75;23.33;;;;;;;20.77;99.76;101861.00;5066031;28;20029;-64
2022/08/24 03:22:24;;;;;;;32.90;22.50;;;;;;;20.77;99.51;101857.47;5064413;28;20028;-64
2022/08/24 03:24:50;;;;;;;34.75;23.38;;;;;;;20.73;99.97;101864.84;5067121;28;20028;-65
2022/08/24 03:27:15;;;;;;;30.90;20.42;;;;;;;20.75;99.59;101867.41;5065402;28;20020;-64
2022/08/24 03:29:40;;;;;;;32.33;22.75;;;;;;;20.74;99.77;101852.31;5066023;28;20026;-64
2022/08/24 03:32:07;;;;;;;34.00;21.52;;;;;;;20.73;99.82;101854.13;5046471;28;20024;-64
2022/08/24 03:34:32;;;;;;;33.28;22.05;;;;;;;20.74;99.41;101860.34;5065680;28;20094;-64
2022/08/24 03:36:57;;;;;;;34.25;23.40;;;;;;;20.72;99.61;101857.75;5065120;28;20429;-64
2022/08/24 03:39:23;;;;;;;33.28;22.25;;;;;;;20.68;99.63;101862.44;5066481;28;20017;-64
2022/08/24 03:41:48;;;;;;;36.30;24.10;;;;;;;20.69;99.72;101864.19;5065880;28;20058;-63
2022/08/24 03:44:13;;;;;;;40.35;23.30;;;;;;;20.67;99.65;101860.72;5065643;28;20055;-64
2022/08/24 03:46:39;;;;;;;36.15;23.52;;;;;;;20.65;100.00;101854.59;5064340;28;20067;-64
2022/08/24 03:49:07;;;;;;;35.35;23.38;;;;;;;20.64;100.00;101860.91;5066016;28;20029;-65
2022/08/24 03:51:34;;;;;;;39.75;22.65;;;;;;;20.63;100.00;101861.00;5063208;28;20028;-65
2022/08/24 03:54:00;;;;;;;34.20;23.40;;;;;;;20.61;99.66;101858.41;5066144;28;20770;-66
2022/08/24 03:56:25;;;;;;;30.27;21.48;;;;;;;20.58;99.91;101858.59;5062101;28;20060;-65
2022/08/24 03:58:51;;;;;;;33.70;22.85;;;;;;;20.58;99.97;101858.59;5065163;28;20055;-65
2022/08/24 04:01:16;;;;;;;30.02;21.17;;;;;;;20.55;100.00;101858.78;5065350;28;20012;-64
2022/08/24 04:03:43;;;;;;;29.88;21.10;;;;;;;20.53;100.00;101858.03;5064904;28;20029;-66
2022/08/24 04:06:10;;;;;;;33.13;22.00;;;;;;;20.57;100.00;101864.91;5064183;28;20177;-66
2022/08/24 04:08:35;;;;;;;34.67;22.00;;;;;;;20.52;100.00;101864.31;5065260;28;20055;-67
2022/08/24 04:11:01;;;;;;;33.33;22.58;;;;;;;20.50;100.00;101874.25;5065400;28;20471;-66
2022/08/24 04:13:30;;;;;;;33.17;22.77;;;;;;;20.48;100.00;101870.81;5064767;28;20506;-67
2022/08/24 04:15:56;;;;;;;33.42;22.42;;;;;;;20.45;100.00;101863.84;5065287;28;20244;-66
2022/08/24 04:18:22;;;;;;;32.65;22.73;;;;;;;20.48;100.00;101869.00;5065182;28;20596;-66
2022/08/24 04:20:47;;;;;;;33.58;22.33;;;;;;;20.50;100.00;101868.91;5063783;28;20071;-65
2022/08/24 04:23:14;;;;;;;32.30;20.05;;;;;;;20.48;100.00;101870.81;5065341;28;20926;-67
2022/08/24 04:25:45;;;;;;;28.73;20.65;;;;;;;20.48;100.00;101878.84;5064665;28;20122;-66
2022/08/24 04:28:12;;;;;;;30.08;19.67;;;;;;;20.47;100.00;101874.44;5064556;28;20031;-66
2022/08/24 04:30:42;;;;;;;33.33;21.00;;;;;;;20.47;100.00;101878.00;5064040;28;20066;-65
2022/08/24 04:33:11;;;;;;;30.50;19.73;;;;;;;20.48;100.00;101876.16;5065234;28;20039;-66
2022/08/24 04:35:42;;;;;;;29.27;19.20;;;;;;;20.48;100.00;101870.81;5063563;28;20032;-65
2022/08/24 04:38:08;;;;;;;29.45;19.15;;;;;;;20.48;100.00;101874.34;5064717;28;20025;-66
2022/08/24 04:40:34;;;;;;;31.52;19.17;;;;;;;20.50;100.00;101879.63;5064513;28;20017;-65
2022/08/24 04:43:00;;;;;;;33.35;19.77;;;;;;;20.50;100.00;101872.44;5064311;28;20024;-66
2022/08/24 04:45:27;;;;;;;32.00;18.17;;;;;;;20.53;100.00;101874.09;5063361;28;20074;-63
2022/08/24 04:47:52;;;;;;;25.52;18.10;;;;;;;20.55;100.00;101880.19;5065250;28;20017;-63
2022/08/24 04:50:17;;;;;;;27.65;17.02;;;;;;;20.57;100.00;101878.28;5045948;28;20035;-65
2022/08/24 04:52:43;;;;;;;28.30;19.58;;;;;;;20.62;100.00;101872.66;5062600;28;20111;-63
2022/08/24 04:55:09;;;;;;;29.35;17.77;;;;;;;20.68;100.00;101878.50;5063514;28;20036;-63
2022/08/24 04:57:34;;;;;;;32.38;18.60;;;;;;;20.74;100.00;101876.41;5064360;28;20489;-63
2022/08/24 05:00:00;;;;;;;26.42;17.75;;;;;;;20.81;100.00;101880.44;5062678;28;20051;-63
2022/08/24 05:02:26;;;;;;;21.65;16.63;;;;;;;20.88;100.00;101881.78;5062847;28;20040;-63
2022/08/24 05:04:51;;;;;;;24.23;17.25;;;;;;;20.96;100.00;101876.00;5063822;28;20127;-64
2022/08/24 05:07:17;;;;;;;24.83;15.93;;;;;;;21.04;100.00;101883.56;5062310;28;20020;-63
2022/08/24 05:09:43;;;;;;;25.20;15.65;;;;;;;21.11;99.72;101879.53;5064982;28;20063;-64
2022/08/24 05:12:09;;;;;;;18.58;14.07;;;;;;;21.21;99.02;101886.03;5062892;28;20032;-64
2022/08/24 05:14:34;;;;;;;19.88;14.80;;;;;;;21.28;98.67;101885.66;5063600;28;20028;-64
2022/08/24 05:16:59;;;;;;;20.33;15.10;;;;;;;21.38;98.24;101889.47;5037028;28;20082;-64
2022/08/24 05:19:25;;;;;;;18.25;13.82;;;;;;;21.50;97.63;101887.81;5043594;28;20039;-65
2022/08/24 05:21:50;;;;;;;20.75;13.63;;;;;;;21.63;97.21;101890.56;5049814;28;20020;-63
2022/08/24 05:24:15;;;;;;;18.17;12.13;;;;;;;21.71;96.88;101893.59;5064026;28;20093;-63
2022/08/24 05:26:41;;;;;;;21.67;13.63;;;;;;;21.81;96.47;101891.22;5062820;28;20459;-64
2022/08/24 05:29:06;;;;;;;18.58;13.25;;;;;;;21.91;95.90;101901.38;5062887;28;20104;-65
2022/08/24 05:31:32;;;;;;;18.25;11.27;;;;;;;21.98;95.59;101902.69;5063229;28;20021;-64
2022/08/24 05:33:59;;;;;;;22.23;12.35;;;;;;;22.06;94.74;101896.78;5063012;28;20107;-63
2022/08/24 05:36:28;;;;;;;15.35;11.50;;;;;;;22.13;93.85;101899.94;5044505;28;20398;-64
2022/08/24 05:38:55;;;;;;;17.35;11.30;;;;;;;22.20;93.60;101888.69;5062817;28;20040;-63
2022/08/24 05:41:21;;;;;;;13.40;10.32;;;;;;;22.27;93.12;101889.13;5064656;28;20028;-64
2022/08/24 05:43:47;;;;;;;11.90;9.80;;;;;;;22.33;92.60;101886.03;5063469;28;20024;-65
2022/08/24 05:46:13;;;;;;;13.75;9.57;;;;;;;22.40;92.12;101891.00;5063127;28;20023;-65
2022/08/24 05:48:38;;;;;;;13.80;8.52;;;;;;;22.44;92.01;101890.69;5063475;28;20033;-64
2022/08/24 05:51:05;;;;;;;15.10;9.77;;;;;;;22.51;91.46;101890.28;5059183;28;20321;-64
2022/08/24 05:53:30;;;;;;;17.63;10.27;;;;;;;22.59;90.99;101886.13;5052961;28;20389;-65
2022/08/24 05:55:56;;;;;;;19.05;9.70;;;;;;;22.63;90.77;101891.28;5018918;28;20032;-66
2022/08/24 05:58:21;;;;;;;16.40;9.13;;;;;;;22.65;90.41;101898.25;5052102;28;20025;-64
2022/08/24 06:00:48;;;;;;;14.32;9.45;;;;;;;22.71;90.47;101897.84;5054698;28;20467;-64
2022/08/24 06:03:14;;;;;;;19.20;10.85;;;;;;;22.81;89.89;101905.25;5054436;28;20025;-64
2022/08/24 06:05:43;;;;;;;21.35;9.60;;;;;;;22.84;89.81;101903.22;5051251;28;20442;-66
2022/08/24 06:08:08;;;;;;;17.02;10.00;;;;;;;22.87;89.63;101902.13;5052936;28;20025;-66
2022/08/24 06:10:46;;;;;;;15.20;11.07;;;;;;;22.95;89.14;101899.78;5054722;28;20028;-67
2022/08/24 06:13:12;;;;;;;14.63;9.60;;;;;;;23.03;88.89;101896.53;5060906;28;20052;-65
2022/08/24 06:15:38;;;;;;;17.40;12.02;;;;;;;23.07;88.84;101902.56;5060860;28;20063;-65
2022/08/24 06:18:03;;;;;;;20.90;11.32;;;;;;;23.12;88.48;101905.78;5063511;28;20028;-64
2022/08/24 06:20:29;;;;;;;23.35;10.75;;;;;;;23.19;88.45;101900.84;5053127;28;20421;-63
2022/08/24 06:22:54;;;;;;;14.52;9.10;;;;;;;23.27;88.08;101908.34;5060821;28;20024;-63
2022/08/24 06:28:04;;;;;;;23.55;11.05;;;;;;;23.42;87.35;101907.25;5062376;28;20115;-64
2022/08/24 06:30:29;;;;;;;18.98;10.07;;;;;;;23.50;87.42;101898.66;5063323;28;20078;-63
2022/08/24 06:32:58;;;;;;;16.88;10.52;;;;;;;23.55;86.85;101906.38;5062059;28;20048;-64
2022/08/24 06:35:25;;;;;;;14.60;7.75;;;;;;;23.66;86.71;101900.22;5045651;28;20043;-64
2022/08/24 06:37:50;;;;;;;12.40;8.13;;;;;;;23.81;86.01;101906.31;5057018;28;20337;-63
2022/08/24 06:40:15;;;;;;;13.05;7.65;;;;;;;23.88;85.87;101902.19;5056445;28;20078;-65
2022/08/24 06:42:41;;;;;;;12.00;8.30;;;;;;;24.01;85.16;101909.34;5056979;28;20102;-63
2022/08/24 06:45:07;;;;;;;11.18;7.13;;;;;;;24.19;84.35;101910.69;5037219;28;20159;-63
2022/08/24 06:47:32;;;;;;;12.93;7.18;;;;;;;24.11;84.17;101915.78;5053578;28;20063;-65
2022/08/24 06:49:58;;;;;;;8.25;6.22;;;;;;;24.25;83.77;101916.56;5055985;28;20028;-64
2022/08/24 06:52:24;;;;;;;10.60;6.57;;;;;;;24.31;83.54;101916.97;5053188;28;20139;-65
2022/08/24 06:54:49;;;;;;;11.48;5.88;;;;;;;24.50;82.70;101917.41;5057426;28;20012;-64
2022/08/24 06:57:15;;;;;;;10.57;5.90;;;;;;;24.51;82.38;101908.34;5053511;28;20467;-64
2022/08/24 06:59:41;;;;;;;8.73;5.40;;;;;;;24.53;82.28;101914.47;5066122;28;20479;-64
2022/08/24 07:02:07;;;;;;;9.20;5.88;;;;;;;24.60;82.08;101913.03;5061379;28;20027;-64
2022/08/24 07:04:33;;;;;;;12.82;6.07;;;;;;;24.66;81.32;101917.94;5061516;28;20043;-64
2022/08/24 07:06:59;;;;;;;8.63;6.13;;;;;;;24.64;81.57;101919.88;5064581;28;20028;-65
2022/08/24 07:09:25;;;;;;;7.20;5.63;;;;;;;24.74;81.56;101912.81;5059594;28;20039;-64
2022/08/24 07:11:51;;;;;;;8.77;5.93;;;;;;;24.78;80.94;101915.25;5055867;28;20380;-65
2022/08/24 07:14:17;;;;;;;10.32;6.57;;;;;;;24.83;81.07;101918.47;5055664;28;20390;-64
2022/08/24 07:16:42;;;;;;;9.68;6.38;;;;;;;24.82;80.50;101922.13;5053070;28;20036;-65
2022/08/24 07:19:07;;;;;;;8.50;5.15;;;;;;;24.92;81.05;101912.38;5056153;28;20024;-64
2022/08/24 07:21:33;;;;;;;6.78;5.15;;;;;;;24.98;80.98;101927.19;5051152;28;20078;-65
2022/08/24 07:23:59;;;;;;;11.10;5.53;;;;;;;25.04;80.80;101923.19;5055676;28;20442;-65
2022/08/24 07:26:26;;;;;;;7.85;5.45;;;;;;;25.17;80.17;101931.16;5052660;28;20029;-63
2022/08/24 07:28:54;;;;;;;11.48;6.68;;;;;;;25.16;80.14;101926.75;5063062;28;20025;-63
2022/08/24 07:31:20;;;;;;;10.73;7.15;;;;;;;25.17;79.91;101921.22;5060402;28;20109;-64
2022/08/24 07:33:45;;;;;;;9.15;5.45;;;;;;;25.23;80.22;101928.81;5061504;28;20095;-63
2022/08/24 07:36:11;;;;;;;10.00;6.15;;;;;;;25.21;80.07;101928.09;5060459;28;20029;-62
2022/08/24 07:38:37;;;;;;;6.53;5.00;;;;;;;25.25;79.48;101934.06;5057067;28;20626;-63
2022/08/24 07:41:03;;;;;;;6.07;5.00;;;;;;;25.38;78.67;101927.72;5053321;28;20475;-65
2022/08/24 07:43:28;;;;;;;9.75;4.95;;;;;;;25.46;78.67;101931.50;5054477;28;20096;-64
2022/08/24 07:45:53;;;;;;;6.03;3.85;;;;;;;25.57;78.64;101933.34;5061758;28;20032;-64
2022/08/24 07:48:19;;;;;;;8.50;5.50;;;;;;;25.41;78.24;101931.03;5063595;28;20016;-64
2022/08/24 07:50:44;;;;;;;8.27;5.88;;;;;;;25.49;78.58;101936.66;5062633;28;20574;-63
2022/08/24 07:53:10;;;;;;;9.27;5.97;;;;;;;25.71;77.56;101940.31;5064679;28;20111;-63
2022/08/24 07:55:35;;;;;;;6.72;4.93;;;;;;;25.80;77.41;101935.16;5060381;28;20032;-64
2022/08/24 07:58:01;;;;;;;7.63;5.15;;;;;;;25.74;77.54;101942.78;5054514;28;20032;-64
2022/08/24 08:00:27;;;;;;;7.85;5.18;;;;;;;25.75;76.83;101946.34;5056921;28;20040;-63
2022/08/24 08:02:53;;;;;;;12.95;5.60;;;;;;;25.80;77.61;101941.44;5031377;28;20021;-64
2022/08/24 08:05:21;;;;;;;7.47;4.43;;;;;;;25.87;76.63;101952.56;5025714;28;20051;-63
2022/08/24 08:07:47;;;;;;;9.32;5.38;;;;;;;25.95;76.49;101950.09;5065082;28;20036;-63
2022/08/24 08:10:13;;;;;;;11.30;5.30;;;;;;;26.02;76.51;101946.88;5064290;28;20040;-64
2022/08/24 08:12:38;;;;;;;5.30;3.35;;;;;;;26.10;74.24;101949.81;5064031;28;20021;-61
2022/08/24 08:15:08;;;;;;;5.82;3.15;;;;;;;26.15;73.68;101944.88;5063831;28;20024;-59
2022/08/24 08:17:36;;;;;;;5.78;2.75;;;;;;;26.29;73.28;101951.84;5062132;28;20031;-60
2022/08/24 08:20:04;;;;;;;3.38;2.58;;;;;;;26.28;72.52;101949.25;5062704;28;20036;-59
2022/08/24 08:25:13;;;;;;;5.35;2.78;;;;;;;26.25;72.58;101958.47;5063686;28;20688;-60
2022/08/24 08:27:39;;;;;;;4.57;2.45;;;;;;;26.33;72.20;101957.84;5063188;28;20111;-59
2022/08/24 08:30:05;;;;;;;3.75;2.70;;;;;;;26.27;72.38;101961.91;5063564;28;20028;-60
2022/08/24 08:32:30;;;;;;;8.45;3.20;;;;;;;26.46;72.25;101963.09;5063012;28;20532;-60
2022/08/24 08:34:56;;;;;;;2.90;2.17;;;;;;;26.49;71.68;101958.25;5044337;28;20029;-61
2022/08/24 08:37:22;;;;;;;4.03;2.25;;;;;;;26.44;71.56;101957.81;5057002;28;20084;-61
2022/08/24 08:39:47;;;;;;;5.57;2.30;;;;;;;26.45;71.99;101959.53;5050630;28;20016;-59
2022/08/24 08:42:26;;;;;;;5.50;2.35;;;;;;;26.51;71.58;101962.69;5035232;28;20470;-62
2022/08/24 08:45:05;;;;;;;3.38;2.03;;;;;;;26.59;71.84;101962.91;5063301;28;20430;-61
2022/08/24 08:47:51;;;;;;;2.75;2.15;;;;;;;26.70;71.01;101962.81;5043726;28;20429;-60
2022/08/24 08:50:20;;;;;;;8.70;2.30;;;;;;;26.79;70.42;101971.16;5059974;28;20028;-59
2022/08/24 08:53:04;;;;;;;6.10;2.00;;;;;;;26.88;70.40;101964.94;5061580;28;20031;-59
2022/08/24 08:55:47;;;;;;;3.10;1.40;;;;;;;26.91;70.46;101970.06;5060593;28;20032;-60
2022/08/24 08:58:37;;;;;;;3.08;2.10;;;;;;;26.95;69.71;101971.53;5047660;28;20025;-60
2022/08/24 09:01:21;;;;;;;3.72;2.42;;;;;;;27.11;69.70;101970.22;5062385;28;20290;-61
2022/08/24 09:04:09;;;;;;;3.53;2.45;;;;;;;27.06;70.18;101967.91;5037734;28;20059;-61
2022/08/24 09:06:53;;;;;;;4.40;2.00;;;;;;;27.25;69.79;101971.72;5041526;28;20040;-59
2022/08/24 09:09:31;;;;;;;4.40;1.60;;;;;;;27.39;67.89;101973.19;5058270;28;20032;-60
2022/08/24 09:12:08;;;;;;;4.47;2.40;;;;;;;27.39;67.56;101973.19;5060624;28;20078;-60
2022/08/24 09:14:58;;;;;;;2.40;2.20;;;;;;;27.36;67.83;101973.47;5053748;28;20056;-59
2022/08/24 09:17:45;;;;;;;5.72;2.00;;;;;;;27.44;68.24;101972.78;5060790;28;20463;-61
2022/08/24 09:20:42;;;;;;;4.55;2.22;;;;;;;27.47;69.06;101978.78;5060235;28;20020;-63
2022/08/24 09:23:33;;;;;;;2.17;1.60;;;;;;;27.63;67.38;101971.97;5062686;28;20020;-60
2022/08/24 09:26:08;;;;;;;2.22;2.03;;;;;;;27.70;67.67;101964.22;5060974;28;20032;-60
2022/08/24 09:29:17;;;;;;;6.32;2.53;;;;;;;27.74;67.36;101969.22;5062922;28;20766;-60
2022/08/24 09:31:56;;;;;;;7.50;2.75;;;;;;;27.63;67.46;101969.28;5000294;28;20100;-60
2022/08/24 09:34:33;;;;;;;3.72;2.15;;;;;;;27.83;66.99;101972.94;5040849;28;20036;-60
2022/08/24 09:37:01;;;;;;;3.15;2.28;;;;;;;27.73;67.50;101970.22;5043687;28;20055;-61
2022/08/24 09:39:47;;;;;;;4.97;3.00;;;;;;;27.83;67.56;101974.78;5062060;28;20021;-60
2022/08/24 09:42:37;;;;;;;6.15;3.08;;;;;;;27.79;66.98;101970.66;5062894;28;20048;-59
2022/08/24 09:45:09;;;;;;;5.28;2.38;;;;;;;28.01;66.37;101977.66;5063372;28;20031;-61
2022/08/24 09:48:01;;;;;;;7.38;2.30;;;;;;;28.12;66.27;101974.81;5062596;28;20492;-60
2022/08/24 09:50:48;;;;;;;5.00;1.80;;;;;;;28.20;66.21;101966.00;5061240;28;20075;-62
2022/08/24 09:53:19;;;;;;;3.85;2.00;;;;;;;28.21;66.74;101973.16;5064216;28;20036;-64
2022/08/24 09:56:15;;;;;;;3.05;2.10;;;;;;;28.20;66.28;101967.88;5062033;28;20067;-63
2022/08/24 09:58:56;;;;;;;3.92;1.98;;;;;;;28.32;65.43;101972.16;5063923;28;20814;-62
2022/08/24 10:01:48;;;;;;;2.28;1.63;;;;;;;28.51;64.98;101968.56;5044954;28;20029;-63
2022/08/24 10:04:43;;;;;;;3.97;2.10;;;;;;;28.51;65.32;101968.56;5059638;28;20045;-59
2022/08/24 10:07:17;;;;;;;2.22;2.05;;;;;;;28.61;63.91;101965.88;5048104;28;20044;-64
2022/08/24 10:10:03;;;;;;;1.80;1.65;;;;;;;28.67;64.00;101967.16;5048367;28;20107;-60
2022/08/24 10:12:48;;;;;;;3.78;2.40;;;;;;;28.85;64.58;101969.09;5038749;28;20032;-63
2022/08/24 10:15:19;;;;;;;2.30;1.60;;;;;;;29.12;62.71;101948.50;5046797;28;20119;-63
2022/08/24 10:18:07;;;;;;;4.28;2.50;;;;;;;29.07;62.08;101957.09;5048135;28;20021;-64
2022/08/24 10:21:11;;;;;;;6.20;2.38;;;;;;;29.23;61.91;101959.16;5064585;28;20415;-67
2022/08/24 10:24:21;;;;;;;10.55;2.30;;;;;;;29.50;62.31;101953.91;5052719;28;20059;-65
2022/08/24 10:26:52;;;;;;;4.50;2.33;;;;;;;29.61;62.37;101952.88;4983283;28;20053;-60
2022/08/24 10:29:48;;;;;;;5.75;2.42;;;;;;;29.77;60.85;101938.63;4985078;28;20217;-60
2022/08/24 10:32:46;;;;;;;4.35;2.15;;;;;;;29.74;61.06;101953.34;5032933;28;20319;-61
2022/08/24 10:35:14;;;;;;;4.00;1.70;;;;;;;30.09;60.30;101944.53;5025112;28;20037;-59
2022/08/24 10:37:46;;;;;;;;;;;;;;;30.29;57.07;101945.28;5048288;28;20558;-61
2022/08/24 10:40:37;;;;;;;4.63;1.80;;;;;;;30.20;56.80;101946.19;5066922;28;19970;-61
2022/08/24 10:43:34;;;;;;;2.40;1.60;;;;;;;30.38;56.87;101948.91;5048221;28;20040;-60
2022/08/24 10:46:32;;;;;;;1.70;1.60;;;;;;;30.33;58.50;101946.66;5050920;28;20016;-60
2022/08/24 10:49:34;;;;;;;6.75;2.00;;;;;;;30.54;57.92;101947.31;5047882;28;20279;-61
2022/08/24 10:52:03;;;;;;;2.45;1.60;;;;;;;30.38;56.77;101941.63;5065292;28;20487;-61
2022/08/24 10:54:32;;;;;;;5.53;1.60;;;;;;;30.41;56.30;101942.28;5066611;28;20089;-61
2022/08/24 10:57:30;;;;;;;3.10;1.25;;;;;;;30.39;56.58;101939.72;5065288;28;20115;-62
2022/08/24 11:00:02;;;;;;;9.10;1.90;;;;;;;30.25;57.27;101936.56;5066559;28;20021;-62
2022/08/24 11:02:37;;;;;;;4.63;1.90;;;;;;;30.18;57.73;101938.19;5064847;28;20028;-61
2022/08/24 11:05:29;;;;;;;3.47;2.15;;;;;;;30.12;57.52;101933.34;5048191;28;20127;-65
2022/08/24 11:08:04;;;;;;;2.08;1.40;;;;;;;30.10;58.68;101935.38;5049133;28;20049;-61
2022/08/24 11:10:34;;;;;;;2.58;1.27;;;;;;;30.19;58.54;101942.63;5066036;28;20021;-61
2022/08/24 11:13:22;;;;;;;3.55;1.50;;;;;;;30.24;56.29;101934.00;5064246;28;20016;-62
2022/08/24 11:15:56;;;;;;;2.22;1.77;;;;;;;30.22;57.20;101941.47;5065093;28;20040;-61
2022/08/24 11:18:22;;;;;;;7.82;1.60;;;;;;;30.63;57.36;101930.91;5064500;28;20025;-63
2022/08/24 11:20:51;;;;;;;2.22;1.40;;;;;;;31.06;55.34;101932.03;5064513;28;20471;-61
2022/08/24 11:23:25;;;;;;;2.55;1.30;;;;;;;31.50;54.46;101925.59;5064838;28;20052;-62
2022/08/24 11:26:00;;;;;;;1.85;1.30;;;;;;;31.72;53.90;101935.03;5047318;28;20025;-61
2022/08/24 11:28:29;;;;;;;3.63;1.63;;;;;;;31.92;53.28;101937.47;5045272;28;20032;-61
2022/08/24 11:30:55;;;;;;;3.50;1.58;;;;;;;31.92;52.66;101932.03;5066115;28;20048;-64
2022/08/24 11:33:30;;;;;;;4.15;1.70;;;;;;;32.06;52.00;101935.09;5046384;28;20060;-61
2022/08/24 11:35:59;;;;;;;12.18;1.90;;;;;;;32.20;52.28;101928.97;5044793;28;20078;-64
2022/08/24 11:38:30;;;;;;;1.63;1.52;;;;;;;32.18;51.82;101927.44;5064738;28;20021;-62